createdAt,value
2023-10-13T00:02:31.229Z,76.41
2023-10-13T00:07:32.762Z,77.25
2023-10-13T00:12:38.308Z,78.00
2023-10-13T00:17:39.931Z,77.52
2023-10-13T00:22:42.059Z,77.58
2023-10-13T00:27:45.192Z,77.60
2023-10-13T00:32:47.956Z,77.17
2023-10-13T00:37:49.457Z,76.93
2023-10-13T00:42:53.848Z,77.00
2023-10-13T00:47:59.442Z,76.34
2023-10-13T00:53:01.632Z,75.90
2023-10-13T00:58:08.639Z,77.06
2023-10-13T01:03:09.980Z,76.87
2023-10-13T01:08:12.960Z,76.95
2023-10-13T01:13:14.469Z,77.18
2023-10-13T01:18:17.542Z,76.82
2023-10-13T01:23:25.751Z,77.18
2023-10-13T01:28:27.086Z,77.19
2023-10-13T01:33:29.111Z,77.28
2023-10-13T01:38:34.309Z,76.51
2023-10-13T01:43:36.177Z,78.00
2023-10-13T01:48:41.477Z,76.96
2023-10-13T01:53:42.941Z,76.81
2023-10-13T01:58:44.248Z,76.48
2023-10-13T02:03:49.315Z,76.27
2023-10-13T02:08:52.344Z,76.75
2023-10-13T02:13:55.062Z,76.27
2023-10-13T02:18:56.466Z,76.13
2023-10-13T02:24:06.655Z,76.25
2023-10-13T02:29:19.092Z,76.25
2023-10-13T02:34:20.715Z,76.09
2023-10-13T02:39:26.779Z,75.74
2023-10-13T02:44:28.665Z,76.26
2023-10-13T02:49:37.997Z,76.08
2023-10-13T02:54:43.692Z,75.93
2023-10-13T02:59:47.868Z,76.13
2023-10-13T03:04:49.361Z,75.95
2023-10-13T03:09:53.731Z,76.33
2023-10-13T03:15:12.907Z,76.06
2023-10-13T03:20:15.309Z,76.41
2023-10-13T03:25:25.327Z,77.39
2023-10-13T03:30:36.911Z,77.72
2023-10-13T03:35:44.508Z,77.39
2023-10-13T03:41:08.231Z,77.54
2023-10-13T03:46:09.593Z,78.03
2023-10-13T03:51:17.544Z,77.54
2023-10-13T03:56:31.088Z,77.16
2023-10-13T04:01:59.952Z,77.39
2023-10-13T04:07:10.949Z,77.42
2023-10-13T04:12:12.431Z,76.26
2023-10-13T04:17:16.737Z,77.33
2023-10-13T04:22:22.005Z,77.94
2023-10-13T04:27:54.517Z,77.54
2023-10-13T04:33:28.065Z,77.43
2023-10-13T04:38:49.285Z,77.52
2023-10-13T04:43:56.870Z,79.10
2023-10-13T04:49:01.967Z,78.85
2023-10-13T04:54:13.913Z,78.63
2023-10-13T04:59:33.920Z,78.27
2023-10-13T05:05:01.147Z,78.49
2023-10-13T05:10:20.959Z,78.71
2023-10-13T05:15:40.856Z,77.91
2023-10-13T05:21:20.465Z,78.69
2023-10-13T05:26:44.700Z,78.05
2023-10-13T05:32:04.607Z,77.56
2023-10-13T05:37:32.187Z,77.47
2023-10-13T05:42:51.963Z,77.49
2023-10-13T05:48:12.805Z,77.42
2023-10-13T05:53:14.197Z,77.33
2023-10-13T05:58:34.754Z,77.04
2023-10-13T06:03:56.952Z,77.02
2023-10-13T06:09:17.262Z,78.29
2023-10-13T06:14:37.210Z,77.68
2023-10-13T06:19:57.217Z,77.79
2023-10-13T06:25:16.968Z,78.12
2023-10-13T06:30:18.417Z,77.71
2023-10-13T06:35:20.537Z,77.87
2023-10-13T06:40:34.657Z,78.31
2023-10-13T06:45:37.017Z,78.50
2023-10-13T06:50:43.115Z,78.41
2023-10-13T06:55:48.081Z,79.07
2023-10-13T07:00:59.063Z,79.21
2023-10-13T07:06:00.917Z,78.92
2023-10-13T07:11:05.226Z,79.29
2023-10-13T07:16:16.419Z,79.99
2023-10-13T07:21:33.400Z,81.77
2023-10-13T07:26:34.929Z,80.15
2023-10-13T07:31:38.814Z,79.42
2023-10-13T07:36:40.657Z,79.68
2023-10-13T07:41:45.149Z,81.07
2023-10-13T07:46:48.025Z,80.10
2023-10-13T07:51:52.379Z,79.43
2023-10-13T07:56:55.981Z,78.16
2023-10-13T08:02:34.584Z,78.14
2023-10-13T08:07:41.040Z,78.42
2023-10-13T08:12:45.200Z,78.00
2023-10-13T08:17:46.938Z,79.00
2023-10-13T08:22:48.720Z,79.82
2023-10-13T08:27:51.236Z,72.75
2023-10-13T08:32:56.011Z,70.99
2023-10-13T08:38:06.260Z,69.07
2023-10-13T08:43:17.719Z,62.84
2023-10-13T08:48:20.233Z,61.42
2023-10-13T08:53:40.229Z,61.29
2023-10-13T08:58:53.841Z,57.44
2023-10-13T09:03:55.668Z,56.64
2023-10-13T09:09:07.986Z,57.02
2023-10-13T09:14:09.606Z,56.69
2023-10-13T09:19:13.172Z,53.47
2023-10-13T09:24:28.407Z,52.89
2023-10-13T09:29:30.323Z,51.72
2023-10-13T09:34:34.565Z,51.31
2023-10-13T09:39:56.160Z,51.40
2023-10-13T09:45:00.191Z,49.33
2023-10-13T09:50:06.616Z,48.43
2023-10-13T09:55:10.134Z,48.91
2023-10-13T10:00:27.702Z,47.57
2023-10-13T10:05:35.440Z,47.27
2023-10-13T10:10:37.904Z,47.00
2023-10-13T10:15:45.645Z,45.41
2023-10-13T10:20:48.998Z,46.19
2023-10-13T10:25:52.646Z,45.96
2023-10-13T10:30:54.332Z,44.13
2023-10-13T10:35:55.652Z,43.05
2023-10-13T10:40:59.885Z,46.16
2023-10-13T10:46:01.308Z,41.96
2023-10-13T10:51:15.324Z,44.77
2023-10-13T10:56:26.718Z,44.74
2023-10-13T11:01:35.305Z,43.68
2023-10-13T11:06:43.514Z,42.49
2023-10-13T11:11:45.462Z,40.34
2023-10-13T11:16:51.682Z,37.85
2023-10-13T11:21:53.569Z,37.69
2023-10-13T11:26:55.888Z,39.92
2023-10-13T11:32:01.210Z,37.00
2023-10-13T11:37:22.452Z,37.45
2023-10-13T11:42:23.839Z,36.58
2023-10-13T11:47:49.089Z,35.87
2023-10-13T11:52:50.990Z,34.28
2023-10-13T11:57:52.344Z,33.08
2023-10-13T12:03:12.536Z,34.42
2023-10-13T12:08:22.948Z,33.23
2023-10-13T12:13:25.993Z,32.10
2023-10-13T12:18:29.193Z,31.40
2023-10-13T12:23:32.972Z,31.53
2023-10-13T12:28:41.705Z,32.58
2023-10-13T12:33:43.097Z,30.46
2023-10-13T12:38:47.546Z,31.14
2023-10-13T12:44:14.792Z,29.44
2023-10-13T12:49:36.030Z,27.45
2023-10-13T12:54:37.415Z,27.33
2023-10-13T12:59:40.028Z,26.93
2023-10-13T13:04:45.100Z,27.56
2023-10-13T13:09:46.395Z,26.28
2023-10-13T13:14:47.821Z,26.78
2023-10-13T13:19:49.189Z,27.38
2023-10-13T13:24:50.591Z,26.40
2023-10-13T13:29:52.030Z,25.93
2023-10-13T13:35:06.406Z,26.55
2023-10-13T13:40:17.471Z,26.76
2023-10-13T13:45:29.008Z,25.15
2023-10-13T13:50:31.154Z,25.46
2023-10-13T13:55:32.632Z,26.04
2023-10-13T14:00:43.999Z,23.95
2023-10-13T14:05:45.371Z,23.93
2023-10-13T14:11:19.168Z,24.50
2023-10-13T14:16:21.472Z,24.26
2023-10-13T14:21:26.054Z,23.75
2023-10-13T14:26:27.420Z,24.93
2023-10-13T14:31:28.717Z,24.96
2023-10-13T14:36:30.196Z,24.16
2023-10-13T14:41:32.743Z,24.73
2023-10-13T14:46:36.997Z,24.73
2023-10-13T14:51:40.880Z,24.46
2023-10-13T14:56:45.685Z,25.48
2023-10-13T15:01:47.850Z,26.88
2023-10-13T15:06:49.298Z,26.08
2023-10-13T15:11:54.437Z,26.05
2023-10-13T15:16:56.496Z,32.35
2023-10-13T15:21:58.228Z,35.69
2023-10-13T15:27:03.442Z,36.26
2023-10-13T15:32:05.395Z,35.47
2023-10-13T15:37:06.750Z,37.13
2023-10-13T15:42:08.015Z,34.59
2023-10-13T15:52:17.458Z,39.61
2023-10-13T15:57:19.737Z,38.54
2023-10-13T16:02:25.115Z,41.94
2023-10-13T16:07:29.562Z,39.98
2023-10-13T16:12:30.987Z,42.57
2023-10-13T16:17:32.703Z,43.75
2023-10-13T16:22:34.009Z,43.75
2023-10-13T16:27:40.168Z,43.64
2023-10-13T16:32:41.569Z,46.49
2023-10-13T16:37:42.878Z,46.09
2023-10-13T16:42:44.164Z,47.79
2023-10-13T16:47:45.457Z,50.03
2023-10-13T16:52:49.917Z,50.11
2023-10-13T16:57:51.604Z,51.38
2023-10-13T17:02:54.045Z,52.38
2023-10-13T17:07:57.762Z,52.42
2023-10-13T17:13:00.724Z,54.16
2023-10-13T17:18:06.363Z,53.94
2023-10-13T17:23:12.227Z,54.55
2023-10-13T17:28:16.634Z,53.99
2023-10-13T17:33:18.108Z,53.87
2023-10-13T17:38:19.386Z,54.39
2023-10-13T17:43:20.649Z,55.46
2023-10-13T17:48:23.988Z,56.38
2023-10-13T17:53:25.317Z,57.82
2023-10-13T17:58:26.499Z,55.57
2023-10-13T18:03:27.804Z,57.32
2023-10-13T18:08:29.209Z,56.90
2023-10-13T18:13:31.454Z,57.79
2023-10-13T18:18:32.665Z,58.50
2023-10-13T18:23:33.961Z,58.45
2023-10-13T18:28:35.282Z,58.71
2023-10-13T18:33:37.978Z,58.99
2023-10-13T18:38:39.284Z,59.32
2023-10-13T18:43:40.636Z,59.99
2023-10-13T18:48:42.701Z,59.61
2023-10-13T18:53:44.859Z,59.85
2023-10-13T18:58:49.611Z,60.71
2023-10-13T19:03:52.574Z,61.03
2023-10-13T19:08:53.928Z,60.94
2023-10-13T19:13:55.201Z,61.50
2023-10-13T19:19:00.282Z,60.99
2023-10-13T19:24:01.919Z,61.95
2023-10-13T19:29:06.614Z,61.31
2023-10-13T19:34:08.181Z,61.90
2023-10-13T19:39:20.663Z,61.92
2023-10-13T19:44:21.982Z,62.58
2023-10-13T19:49:26.539Z,63.36
2023-10-13T19:54:27.978Z,63.81
2023-10-13T19:59:29.448Z,63.35
2023-10-13T20:04:30.790Z,63.04
2023-10-13T20:09:32.111Z,62.24
2023-10-13T20:14:33.478Z,62.74
2023-10-13T20:19:34.746Z,62.78
2023-10-13T20:24:36.972Z,64.12
2023-10-13T20:29:40.945Z,63.89
2023-10-13T20:34:42.724Z,65.49
2023-10-13T20:39:44.810Z,64.67
2023-10-13T20:44:46.065Z,65.10
2023-10-13T20:49:47.718Z,65.21
2023-10-13T20:54:50.234Z,65.00
2023-10-13T20:59:51.551Z,65.25
2023-10-13T21:04:52.888Z,65.63
2023-10-13T21:09:55.862Z,65.51
2023-10-13T21:14:57.164Z,66.10
2023-10-13T21:19:58.365Z,66.21
2023-10-13T21:25:00.229Z,65.77
2023-10-13T21:30:02.093Z,65.97
2023-10-13T21:35:04.569Z,66.97
2023-10-13T21:40:05.852Z,66.44
2023-10-13T21:45:11.373Z,66.76
2023-10-13T21:50:18.815Z,66.97
2023-10-13T21:55:20.131Z,67.18
2023-10-13T22:00:24.240Z,67.14
2023-10-13T22:05:25.544Z,67.19
2023-10-13T22:10:26.809Z,66.68
2023-10-13T22:15:29.045Z,68.30
2023-10-13T22:20:30.287Z,68.26
2023-10-13T22:25:31.543Z,69.02
2023-10-13T22:30:33.281Z,68.99
2023-10-13T22:35:34.587Z,68.79
2023-10-13T22:40:35.907Z,69.52
2023-10-13T22:45:37.158Z,69.49
2023-10-13T22:50:38.398Z,69.34
2023-10-13T22:55:44.894Z,68.79
2023-10-13T23:00:49.831Z,69.10
2023-10-13T23:05:55.728Z,68.75
2023-10-13T23:11:01.670Z,68.70
2023-10-13T23:16:04.017Z,68.89
2023-10-13T23:21:07.859Z,68.50
2023-10-13T23:26:13.003Z,68.40
2023-10-13T23:31:14.394Z,68.32
2023-10-13T23:36:20.006Z,68.24
2023-10-13T23:41:24.578Z,68.37
2023-10-13T23:46:26.940Z,68.58
2023-10-13T23:51:28.662Z,68.56
2023-10-13T23:56:30.454Z,68.82
